Renderfarm Status:OK
Avg Time Per Frame:129.2 min/frame
Total Users Today:3
Total CPU Time Today:480.24 Hours
Total Frames Waiting:52
Today's CPU Champion:kwijsm20 / 8 days 4 hr
Active Jobs
Job User Frames Renderer Total CPU Average Start End Status
36082 yuchen24 12 houdini 0 Hours 0 min 03/25 03:14 AM Ready
36081 sowong20 100 rman 57.26 Hours 127.2 min 03/25 02:46 AM Rendering
36077 wanlyu20 12 houdini 0 Hours 0 min 03/24 10:33 PM Rendering
36076 siyniu20 13 houdini 3.01 Hours 180.4 min 03/24 10:32 PM Rendering
36075 yawang24 11 houdini 28.88 Hours 216.6 min 03/24 10:30 PM Rendering
Completed Jobs
Job User Frames Renderer Total CPU Average Start End Speedup Status
36080 sowong20 100 rman 0.26 Hours 0.4 min 03/25 02:25 AM 03/25 02:31 AM 2.3x Complete!
36079 kwijsm20 100 houdini 196.59 Hours 118 min 03/25 12:13 AM 03/25 04:18 AM 48.1x Complete!
36078 oobasa20 40 houdini 24.08 Hours 36.1 min 03/24 11:39 PM 03/25 01:22 AM 14.1x Complete!
36074 chaluo20 81 houdini 0.19 Hours 0.1 min 03/24 09:07 PM 03/24 09:10 PM 4.3x Complete!
36073 chaluo20 100 houdini 0.28 Hours 0.2 min 03/24 09:03 PM 03/24 09:06 PM 5.7x Complete!
36072 chaluo20 100 arnold 24.69 Hours 14.8 min 03/24 08:41 PM 03/24 09:01 PM 74.8x Complete!
36071 kgille25 100 rman 59.07 Hours 35.4 min 03/24 08:34 PM 03/24 09:38 PM 55.9x Complete!
36070 oobasa20 100 houdini 80.58 Hours 48.3 min 03/24 08:11 PM 03/24 09:39 PM 55x Complete!
36069 chaluo20 100 arnold 42.08 Hours 25.2 min 03/24 08:03 PM 03/24 08:38 PM 72x Complete!
36068 yedzhu20 1 arnold 0.48 Hours 28.9 min 03/24 07:10 PM 03/24 07:39 PM 1x Complete!
36067 sowong20 60 rman 131.61 Hours 131.6 min 03/24 06:30 PM 03/25 12:40 AM 21.3x Complete!
36066 chaluo20 100 arnold 30.55 Hours 18.3 min 03/24 06:17 PM 03/24 06:47 PM 61x Complete!
36065 kwijsm20 100 houdini 199.25 Hours 119.5 min 03/24 05:51 PM 03/24 10:05 PM 46.9x Complete!
36064 oobasa20 100 houdini 114.16 Hours 68.5 min 03/24 05:44 PM 03/24 07:31 PM 64.2x Complete!
36063 chaluo20 100 arnold 0.83 Hours 0.5 min 03/24 05:26 PM 03/24 06:17 PM 1x Complete!
36062 chaluo20 2 arnold 0.5 Hours 15.1 min 03/24 05:08 PM 03/24 05:23 PM 2x Complete!
36061 chaluo20 100 arnold 14.73 Hours 8.8 min 03/24 04:46 PM 03/24 05:07 PM 40.8x Complete!
36060 kwijsm20 100 houdini 22.05 Hours 13.2 min 03/24 04:20 PM 03/24 05:15 PM 24.1x Complete!
36059 chaluo20 100 arnold 21.7 Hours 13 min 03/24 04:09 PM 03/24 04:32 PM 56.4x Complete!
36058 kwijsm20 100 houdini 16.54 Hours 9.9 min 03/24 03:49 PM 03/24 04:20 PM 31.4x Complete!
36057 npaler20 50 houdini 2 Hours 2.4 min 03/24 03:40 PM 03/24 03:53 PM 9.4x Complete!
36056 jhuang28 14 houdini 42.23 Hours 181 min 03/24 03:04 PM 03/25 04:00 AM 3.3x Complete!
36055 kwijsm20 100 houdini 11.66 Hours 7 min 03/24 01:37 PM 03/24 01:58 PM 32.3x Complete!
36054 yichai20 12 houdini 74.77 Hours 373.8 min 03/24 12:43 PM 03/25 04:01 AM 4.9x Complete!
36053 yuchen24 12 houdini 58.74 Hours 293.7 min 03/24 12:40 PM 03/25 01:28 AM 4.6x Complete!
36052 yawang24 11 houdini 47.1 Hours 256.9 min 03/24 12:38 PM 03/24 10:01 PM 5x Complete!
36051 chaluo20 91 houdini 0.25 Hours 0.2 min 03/24 12:37 PM 03/24 12:40 PM 5.1x Complete!
36050 wanlyu20 12 houdini 52.09 Hours 260.4 min 03/24 12:12 PM 03/24 08:17 PM 6.4x Complete!
36049 npaler20 100 houdini 2.9 Hours 1.7 min 03/24 12:05 PM 03/24 03:19 PM 0.9x Complete!
36048 yedzhu20 100 arnold 25.02 Hours 15 min 03/24 12:03 PM 03/24 12:22 PM 79.5x Complete!
36047 siyniu20 13 houdini 48.48 Hours 223.8 min 03/24 11:36 AM 03/24 07:00 PM 6.6x Complete!
36046 sowong20 100 rman 207.16 Hours 124.3 min 03/24 11:17 AM 03/24 05:40 PM 32.4x Complete!
36045 jhuang28 14 houdini 53.37 Hours 228.7 min 03/24 10:24 AM 03/24 02:43 PM 12.4x Complete!
36044 yichai20 12 houdini 3.31 Hours 16.6 min 03/24 10:13 AM 03/24 10:32 AM 10.3x Complete!
36043 chaluo20 100 arnold 133.91 Hours 80.3 min 03/24 10:07 AM 03/24 12:28 PM 56.9x Complete!
36042 yichai20 12 houdini 3.15 Hours 15.8 min 03/24 09:43 AM 03/24 09:59 AM 11.6x Complete!
36041 chaluo20 100 arnold 40.31 Hours 24.2 min 03/24 09:42 AM 03/24 10:06 AM 97.9x Complete!
36040 yichai20 12 houdini 2.2 Hours 11 min 03/24 09:27 AM 03/24 09:41 AM 9.6x Complete!
36039 siyniu20 12 houdini 2.36 Hours 11.8 min 03/24 09:23 AM 03/24 09:38 AM 9.5x Complete!
36038 siyniu20 12 houdini 1.08 Hours 5.4 min 03/24 09:02 AM 03/24 09:14 AM 5.3x Complete!
36037 yichai20 12 houdini 13.55 Hours 67.7 min 03/24 07:56 AM 03/24 09:12 AM 10.6x Complete!
36036 npaler20 50 houdini 2.62 Hours 3.1 min 03/24 07:55 AM 03/24 08:05 AM 14.6x Complete!
36035 siyniu20 12 houdini 3.77 Hours 18.9 min 03/24 07:55 AM 03/24 08:43 AM 4.7x Complete!
36034 chaluo20 100 arnold 125.59 Hours 75.4 min 03/24 07:37 AM 03/24 09:41 AM 60.6x Complete!
36033 siyniu20 12 houdini 0 Hours 0 min 03/24 06:45 AM 03/24 07:54 AM 0x Complete!
36032 chaluo20 100 arnold 107.3 Hours 64.4 min 03/24 05:02 AM 03/24 06:56 AM 56.3x Complete!
36031 oobasa20 100 houdini 111.44 Hours 66.9 min 03/24 04:44 AM 03/24 06:34 AM 61.1x Complete!
36030 kgille25 1 rman 0.43 Hours 26.1 min 03/24 02:38 AM 03/24 03:04 AM 1x Complete!
36029 kkeise20 100 rman 10.84 Hours 6.5 min 03/24 02:34 AM 03/24 02:43 AM 73.3x Complete!
36028 wenshi21 17 houdini 18.12 Hours 64 min 03/24 01:45 AM 03/24 07:35 AM 3.1x Complete!
Copyright 2014 Savannah College of Art and Design